createdAt,value
2022-12-19T00:01:31.064Z,54.3
2022-12-19T00:03:30.811Z,54.1
2022-12-19T00:05:30.680Z,54.4
2022-12-19T00:07:30.685Z,54
2022-12-19T00:09:30.665Z,54.2
2022-12-19T00:11:30.671Z,54.3
2022-12-19T00:13:31.190Z,54.4
2022-12-19T00:15:30.694Z,54.4
2022-12-19T00:17:30.658Z,54.2
2022-12-19T00:19:30.652Z,54.3
2022-12-19T00:21:30.657Z,54.4
2022-12-19T00:23:30.658Z,54.4
2022-12-19T00:25:30.666Z,54.5
2022-12-19T00:27:31.900Z,54.5
2022-12-19T00:29:30.672Z,54.5
2022-12-19T00:31:30.732Z,54.6
2022-12-19T00:33:30.665Z,54.6
2022-12-19T00:35:30.639Z,54.7
2022-12-19T00:37:30.657Z,54.5
2022-12-19T00:39:30.705Z,54.6
2022-12-19T00:41:33.257Z,54.7
2022-12-19T00:43:30.697Z,54.6
2022-12-19T00:45:30.757Z,54.7
2022-12-19T00:47:30.773Z,54.6
2022-12-19T00:49:55.134Z,54.7
2022-12-19T00:51:30.738Z,54.8
2022-12-19T00:53:41.220Z,54.9
2022-12-19T00:54:31.775Z,54.9
2022-12-19T00:55:30.706Z,54.9
2022-12-19T00:57:35.139Z,54.7
2022-12-19T00:58:19.760Z,54.7
2022-12-19T00:58:56.463Z,54.8
2022-12-19T01:00:04.037Z,54.9
2022-12-19T01:02:03.946Z,54.9
2022-12-19T01:04:27.519Z,55
2022-12-19T01:06:06.572Z,55
2022-12-19T01:08:11.078Z,54.6
2022-12-19T01:10:04.512Z,54.7
2022-12-19T01:12:04.318Z,54.5
2022-12-19T01:14:03.863Z,54.5
2022-12-19T01:16:03.868Z,54.5
2022-12-19T01:18:10.476Z,54.3
2022-12-19T01:18:39.883Z,54.4
2022-12-19T01:19:43.891Z,54.5
2022-12-19T01:21:39.485Z,54.6
2022-12-19T01:23:39.490Z,54.7
2022-12-19T01:25:40.507Z,54.8
2022-12-19T01:27:39.397Z,54.8
2022-12-19T01:29:43.863Z,54.8
2022-12-19T01:31:39.476Z,54.9
2022-12-19T01:33:39.388Z,55
2022-12-19T01:35:39.373Z,55
2022-12-19T01:37:39.370Z,54.9
2022-12-19T01:39:39.375Z,55
2022-12-19T01:41:39.369Z,55
2022-12-19T01:43:39.355Z,55.1
2022-12-19T01:45:45.299Z,55
2022-12-19T01:47:39.344Z,54.8
2022-12-19T01:49:39.369Z,54.8
2022-12-19T01:51:39.357Z,54.9
2022-12-19T01:53:47.446Z,54.9
2022-12-19T01:55:39.439Z,55
2022-12-19T01:57:39.326Z,54.9
2022-12-19T01:59:39.312Z,55
2022-12-19T02:01:39.385Z,55
2022-12-19T02:03:39.335Z,54.9
2022-12-19T02:05:39.314Z,54.9
2022-12-19T02:07:39.433Z,54.8
2022-12-19T02:09:39.317Z,55
2022-12-19T02:11:39.312Z,55.1
2022-12-19T02:13:39.340Z,54.9
2022-12-19T02:15:39.317Z,55
2022-12-19T02:17:39.304Z,54.9
2022-12-19T02:19:39.280Z,55
2022-12-19T02:21:39.287Z,55
2022-12-19T02:23:39.308Z,55.1
2022-12-19T02:25:39.292Z,55.2
2022-12-19T02:27:40.251Z,55.1
2022-12-19T02:29:39.295Z,55.2
2022-12-19T02:31:39.351Z,55.3
2022-12-19T02:33:39.276Z,55.2
2022-12-19T02:35:39.282Z,55.3
2022-12-19T02:37:39.281Z,55.2
2022-12-19T02:39:39.267Z,55.2
2022-12-19T02:41:39.258Z,55.2
2022-12-19T02:43:40.391Z,55.2
2022-12-19T02:45:39.369Z,55.3
2022-12-19T02:47:39.284Z,55.1
2022-12-19T02:49:39.262Z,55.1
2022-12-19T02:51:39.253Z,55.2
2022-12-19T02:53:39.272Z,55.2
2022-12-19T02:55:39.274Z,55.2
2022-12-19T02:57:39.286Z,55.1
2022-12-19T02:59:39.254Z,55.1
2022-12-19T03:01:39.428Z,55
2022-12-19T03:03:39.302Z,55.1
2022-12-19T03:05:39.257Z,55.1
2022-12-19T03:07:39.241Z,55
2022-12-19T03:09:39.324Z,55
2022-12-19T03:11:39.248Z,55
2022-12-19T03:13:39.247Z,55
2022-12-19T03:15:39.243Z,54.8
2022-12-19T03:17:39.269Z,54.6
2022-12-19T03:19:39.258Z,54.7
2022-12-19T03:21:39.247Z,54.8
2022-12-19T03:23:39.323Z,54.9
2022-12-19T03:25:39.240Z,55
2022-12-19T03:27:39.234Z,55
2022-12-19T03:29:39.237Z,55.1
2022-12-19T03:31:39.237Z,55.1
2022-12-19T03:33:41.711Z,55.1
2022-12-19T03:35:39.251Z,55.2
2022-12-19T03:37:39.253Z,55.1
2022-12-19T03:39:39.222Z,55.2
2022-12-19T03:41:39.215Z,55.3
2022-12-19T03:43:39.229Z,55.4
2022-12-19T03:45:39.267Z,55.4
2022-12-19T03:47:39.211Z,55.3
2022-12-19T03:49:39.283Z,55.4
2022-12-19T03:51:39.243Z,55.4
2022-12-19T03:53:39.223Z,55.4
2022-12-19T03:55:39.252Z,55.5
2022-12-19T03:57:39.240Z,55.4
2022-12-19T03:59:39.238Z,55.5
2022-12-19T04:01:39.353Z,55.5
2022-12-19T04:03:39.231Z,55.5
2022-12-19T04:05:39.214Z,55.6
2022-12-19T04:07:39.195Z,55.5
2022-12-19T04:09:39.195Z,55.5
2022-12-19T04:11:39.201Z,55.5
2022-12-19T04:13:39.195Z,55.5
2022-12-19T04:15:39.201Z,55.4
2022-12-19T04:17:39.199Z,55.3
2022-12-19T04:19:42.532Z,55.4
2022-12-19T04:21:40.285Z,55.5
2022-12-19T04:23:41.796Z,55.6
2022-12-19T04:25:39.198Z,55.7
2022-12-19T04:27:39.275Z,55.6
2022-12-19T04:29:39.335Z,55.8
2022-12-19T04:31:39.273Z,55.6
2022-12-19T04:33:39.205Z,55.9
2022-12-19T04:35:39.269Z,56
2022-12-19T04:37:40.526Z,55.9
2022-12-19T04:39:39.294Z,56
2022-12-19T04:41:39.266Z,56
2022-12-19T04:43:39.247Z,56
2022-12-19T04:45:39.149Z,56
2022-12-19T04:47:39.131Z,56
2022-12-19T04:49:39.209Z,56.1
2022-12-19T04:51:39.171Z,56.2
2022-12-19T04:53:39.186Z,56.2
2022-12-19T04:55:39.145Z,56.2
2022-12-19T04:57:39.140Z,56.2
2022-12-19T04:59:39.151Z,56.3
2022-12-19T05:01:39.170Z,56.4
2022-12-19T05:03:39.162Z,56.3
2022-12-19T05:05:39.103Z,56.4
2022-12-19T05:07:39.115Z,56.2
2022-12-19T05:09:39.148Z,56.4
2022-12-19T05:11:39.160Z,56.4
2022-12-19T05:13:39.110Z,56.4
2022-12-19T05:15:39.181Z,56.4
2022-12-19T05:17:39.140Z,56.4
2022-12-19T05:19:39.082Z,56.5
2022-12-19T05:21:39.188Z,56.6
2022-12-19T05:23:39.093Z,56.6
2022-12-19T05:25:39.081Z,56.6
2022-12-19T05:27:39.125Z,56.5
2022-12-19T05:29:39.095Z,56.6
2022-12-19T05:31:39.182Z,56.4
2022-12-19T05:33:39.082Z,56.3
2022-12-19T05:35:39.090Z,56.4
2022-12-19T05:37:39.087Z,56.3
2022-12-19T05:39:39.056Z,56.4
2022-12-19T05:41:39.080Z,56.2
2022-12-19T05:43:39.062Z,56.2
2022-12-19T05:45:39.045Z,56.2
2022-12-19T05:47:39.065Z,56.2
2022-12-19T05:49:39.052Z,56.3
2022-12-19T05:51:39.075Z,55.8
2022-12-19T05:53:39.076Z,56.2
2022-12-19T05:55:39.046Z,56.2
2022-12-19T05:57:39.087Z,56.1
2022-12-19T05:59:39.052Z,56
2022-12-19T06:01:39.065Z,56.2
2022-12-19T06:03:39.101Z,56.3
2022-12-19T06:05:39.085Z,56.4
2022-12-19T06:07:39.082Z,56.3
2022-12-19T06:09:39.105Z,56.3
2022-12-19T06:11:39.022Z,56.2
2022-12-19T06:13:40.548Z,56.1
2022-12-19T06:15:39.020Z,56.2
2022-12-19T06:17:39.063Z,56.1
2022-12-19T06:19:39.028Z,56.2
2022-12-19T06:21:42.410Z,56.2
2022-12-19T06:23:38.989Z,56.3
2022-12-19T06:25:39.031Z,56.3
2022-12-19T06:27:39.022Z,56.2
2022-12-19T06:29:39.011Z,56.3
2022-12-19T06:31:39.054Z,56.4
2022-12-19T06:33:39.001Z,56.4
2022-12-19T06:35:38.990Z,56.3
2022-12-19T06:37:39.441Z,56.2
2022-12-19T06:39:38.997Z,56.2
2022-12-19T06:41:39.009Z,56.2
2022-12-19T06:43:38.992Z,56.2
2022-12-19T06:45:39.110Z,56.2
2022-12-19T06:47:41.483Z,56.1
2022-12-19T06:49:38.987Z,56.2
2022-12-19T06:51:38.986Z,56.1
2022-12-19T06:53:38.963Z,56.1
2022-12-19T06:55:38.961Z,56
2022-12-19T06:57:38.941Z,55.9
2022-12-19T06:59:38.964Z,56
2022-12-19T07:01:39.049Z,56
2022-12-19T07:03:38.997Z,56.1
2022-12-19T07:05:38.981Z,56
2022-12-19T07:07:39.001Z,55.8
2022-12-19T07:09:39.028Z,55.8
2022-12-19T07:11:38.960Z,55.9
2022-12-19T07:13:38.957Z,55.8
2022-12-19T07:15:38.952Z,55.8
2022-12-19T07:17:38.934Z,55.7
2022-12-19T07:19:38.937Z,55.7
2022-12-19T07:21:39.026Z,55.8
2022-12-19T07:23:38.950Z,55.9
2022-12-19T07:25:39.103Z,55.9
2022-12-19T07:27:38.924Z,55.8
2022-12-19T07:29:38.906Z,55.9
2022-12-19T07:31:38.992Z,55.9
2022-12-19T07:33:38.931Z,55.9
2022-12-19T07:35:38.900Z,55.9
2022-12-19T07:37:38.917Z,55.8
2022-12-19T07:39:38.906Z,55.8
2022-12-19T07:41:38.917Z,55.9
2022-12-19T07:43:38.903Z,55.9
2022-12-19T07:45:38.972Z,56
2022-12-19T07:47:38.885Z,55.9
2022-12-19T07:49:38.879Z,55.9
2022-12-19T07:51:38.889Z,56
2022-12-19T07:53:38.877Z,56
2022-12-19T07:55:38.893Z,56.1
2022-12-19T07:57:38.874Z,56.1
2022-12-19T07:59:39.565Z,56.1
2022-12-19T08:01:38.920Z,56.2
2022-12-19T08:03:38.907Z,56.2
2022-12-19T08:05:38.885Z,56.2
2022-12-19T08:07:38.869Z,56.1
2022-12-19T08:09:38.873Z,56.2
2022-12-19T08:11:38.871Z,55.9
2022-12-19T08:13:40.990Z,56
2022-12-19T08:15:38.865Z,56.1
2022-12-19T08:17:39.041Z,56.1
2022-12-19T08:19:38.883Z,56.1
2022-12-19T08:21:38.880Z,56.3
2022-12-19T08:23:38.887Z,56.4
2022-12-19T08:25:38.930Z,56.5
2022-12-19T08:27:38.865Z,56.5
2022-12-19T08:29:38.832Z,56.6
2022-12-19T08:31:38.849Z,56.7
2022-12-19T08:33:38.826Z,56.7
2022-12-19T08:35:38.845Z,56.6
2022-12-19T08:37:38.881Z,56.5
2022-12-19T08:39:38.802Z,56.4
2022-12-19T08:41:38.831Z,56.4
2022-12-19T08:43:38.844Z,56.3
2022-12-19T08:45:38.850Z,56.3
2022-12-19T08:47:38.821Z,56.2
2022-12-19T08:49:38.847Z,56.3
2022-12-19T08:51:38.815Z,56.4
2022-12-19T08:53:38.811Z,56.5
2022-12-19T08:55:38.871Z,56.5
2022-12-19T08:57:38.824Z,56.6
2022-12-19T08:59:38.834Z,56.6
2022-12-19T09:01:38.924Z,56.8
2022-12-19T09:03:39.400Z,56.9
2022-12-19T09:06:02.777Z,57.1
2022-12-19T09:07:38.999Z,57.1
2022-12-19T09:09:38.862Z,57.2
2022-12-19T09:11:40.895Z,57.3
2022-12-19T09:13:38.764Z,57.4
2022-12-19T09:15:38.772Z,57.5
2022-12-19T09:17:38.779Z,57.5
2022-12-19T09:19:38.800Z,57.4
2022-12-19T09:21:38.887Z,57.4
2022-12-19T09:23:38.761Z,57.5
2022-12-19T09:25:38.786Z,57.6
2022-12-19T09:28:01.557Z,57.6
2022-12-19T09:29:38.768Z,57.7
2022-12-19T09:31:38.776Z,57.7
2022-12-19T09:33:43.287Z,57.8
2022-12-19T09:35:38.763Z,57.9
2022-12-19T09:37:38.714Z,57.9
2022-12-19T09:39:38.739Z,58
2022-12-19T09:41:38.758Z,58
2022-12-19T09:43:41.357Z,58.1
2022-12-19T09:45:38.755Z,58.1
2022-12-19T09:47:38.893Z,58.1
2022-12-19T09:49:39.875Z,58.1
2022-12-19T09:51:38.729Z,58.2
2022-12-19T09:53:38.747Z,58.2
2022-12-19T09:55:38.717Z,58.1
2022-12-19T09:57:38.726Z,58.1
2022-12-19T09:59:41.669Z,58.2
2022-12-19T10:01:41.349Z,58.2
2022-12-19T10:03:39.659Z,58.2
2022-12-19T10:06:15.546Z,58.3
2022-12-19T10:08:01.720Z,58.2
2022-12-19T10:10:49.161Z,58.2
2022-12-19T10:12:35.812Z,58.3
2022-12-19T10:13:38.846Z,58.4
2022-12-19T10:15:38.728Z,58.4
2022-12-19T10:17:38.732Z,58.3
2022-12-19T10:19:38.678Z,58.4
2022-12-19T10:22:07.970Z,58.3
2022-12-19T10:23:38.951Z,58.3
2022-12-19T10:25:38.684Z,58.2
2022-12-19T10:27:38.689Z,58.2
2022-12-19T10:29:39.973Z,58.2
2022-12-19T10:31:38.693Z,58.3
2022-12-19T10:33:40.067Z,58.3
2022-12-19T10:35:38.662Z,58.4
2022-12-19T10:37:45.550Z,58.4
2022-12-19T10:39:38.693Z,58.4
2022-12-19T10:41:43.945Z,58.5
2022-12-19T10:43:42.599Z,58.5
2022-12-19T10:45:38.697Z,58.5
2022-12-19T10:47:38.630Z,58.5
2022-12-19T10:49:38.665Z,58.5
2022-12-19T10:51:38.666Z,58.6
2022-12-19T10:53:38.657Z,58.6
2022-12-19T10:55:38.662Z,58.6
2022-12-19T10:57:38.648Z,58.5
2022-12-19T10:59:38.664Z,58.5
2022-12-19T11:01:38.802Z,58.5
2022-12-19T11:03:38.758Z,58.5
2022-12-19T11:05:38.892Z,58.5
2022-12-19T11:07:38.652Z,58.4
2022-12-19T11:09:38.638Z,58.4
2022-12-19T11:12:41.377Z,58.4
2022-12-19T11:15:27.531Z,58.4
2022-12-19T11:18:01.569Z,58.4
2022-12-19T11:21:29.804Z,58.3
2022-12-19T11:24:13.693Z,58.4
2022-12-19T11:29:27.920Z,58.4
2022-12-19T11:29:29.090Z,58.5
2022-12-19T11:30:22.324Z,58.6
2022-12-19T11:30:22.574Z,58.6
2022-12-19T11:32:20.960Z,58.6
2022-12-19T11:33:38.655Z,58.7
2022-12-19T11:35:38.632Z,58.7
2022-12-19T11:37:38.573Z,58.6
2022-12-19T11:39:38.569Z,58.6
2022-12-19T11:41:38.661Z,58.6
2022-12-19T11:43:45.630Z,58.5
2022-12-19T11:45:38.559Z,58.5
2022-12-19T11:47:38.608Z,58.4
2022-12-19T11:49:38.676Z,58.3
2022-12-19T11:51:38.583Z,58.2
2022-12-19T11:53:38.527Z,58.1
2022-12-19T11:55:38.561Z,58.1
2022-12-19T11:57:38.593Z,58
2022-12-19T11:59:38.633Z,57.8
2022-12-19T12:01:38.723Z,57.8
2022-12-19T12:03:41.166Z,57.8
2022-12-19T12:05:38.533Z,57.8
2022-12-19T12:08:15.165Z,57.8
2022-12-19T12:11:24.099Z,57.7
2022-12-19T12:13:22.364Z,57.8
2022-12-19T12:17:46.285Z,57.9
2022-12-19T12:21:30.010Z,57.9
2022-12-19T12:22:27.852Z,57.8
2022-12-19T12:27:00.656Z,57.8
2022-12-19T12:27:17.039Z,57.9
2022-12-19T12:31:03.659Z,58
2022-12-19T12:31:37.415Z,58.1
2022-12-19T12:31:37.684Z,58.1
2022-12-19T12:32:07.720Z,58.1
2022-12-19T12:35:26.945Z,58.3
2022-12-19T12:35:28.560Z,58.2
2022-12-19T12:36:49.522Z,58.3
2022-12-19T12:38:18.538Z,58.2
2022-12-19T12:39:38.549Z,58.2
2022-12-19T12:41:40.052Z,58.2
2022-12-19T12:43:39.930Z,58
2022-12-19T12:45:38.604Z,58.1
2022-12-19T12:47:38.538Z,58
2022-12-19T12:49:38.584Z,58
2022-12-19T12:51:38.524Z,57.9
2022-12-19T12:53:38.490Z,58
2022-12-19T12:55:38.521Z,58
2022-12-19T12:57:38.582Z,58.2
2022-12-19T12:59:38.570Z,58.3
2022-12-19T13:01:38.625Z,58.4
2022-12-19T13:03:38.627Z,58.2
2022-12-19T13:05:38.515Z,58.3
2022-12-19T13:07:38.524Z,58.4
2022-12-19T13:09:38.504Z,58.5
2022-12-19T13:11:38.544Z,58.5
2022-12-19T13:13:38.488Z,58.5
2022-12-19T13:15:38.480Z,58.5
2022-12-19T13:17:38.461Z,58.5
2022-12-19T13:19:38.486Z,58.5
2022-12-19T13:21:38.467Z,58.6
2022-12-19T13:23:38.463Z,58.6
2022-12-19T13:25:38.453Z,58.7
2022-12-19T13:27:38.476Z,58.7
2022-12-19T13:29:38.445Z,58.7
2022-12-19T13:31:38.507Z,58.8
2022-12-19T13:33:38.444Z,58.7
2022-12-19T13:36:26.711Z,58.7
2022-12-19T13:39:52.787Z,58.8
2022-12-19T13:39:53.613Z,58.8
2022-12-19T13:41:38.591Z,58.8
2022-12-19T13:43:38.444Z,58.9
2022-12-19T13:45:38.563Z,58.9
2022-12-19T13:47:39.630Z,58.9
2022-12-19T13:49:38.515Z,58.7
2022-12-19T13:51:38.446Z,58.8
2022-12-19T13:53:38.399Z,58.9
2022-12-19T13:55:38.413Z,59
2022-12-19T13:57:38.432Z,58.7
2022-12-19T13:59:38.414Z,59.2
2022-12-19T14:01:38.483Z,59
2022-12-19T14:03:38.532Z,58.9
2022-12-19T14:06:15.577Z,59
2022-12-19T14:07:38.537Z,59.1
2022-12-19T14:10:49.733Z,58.9
2022-12-19T14:11:42.200Z,58.9
2022-12-19T14:13:41.413Z,58.9
2022-12-19T14:15:38.446Z,58.9
2022-12-19T14:17:38.412Z,58.8
2022-12-19T14:19:38.394Z,58.8
2022-12-19T14:22:02.991Z,58.8
2022-12-19T14:23:43.140Z,58.9
2022-12-19T14:28:15.955Z,58.9
2022-12-19T14:28:16.596Z,58.8
2022-12-19T14:29:56.240Z,58.8
2022-12-19T14:31:38.382Z,58.7
2022-12-19T14:33:41.826Z,58.8
2022-12-19T14:36:09.287Z,58.9
2022-12-19T14:39:01.311Z,58.9
2022-12-19T14:39:39.632Z,59
2022-12-19T14:41:38.375Z,59
2022-12-19T14:43:58.295Z,59.1
2022-12-19T14:51:52.047Z,59.1
2022-12-19T14:52:26.050Z,58.9
2022-12-19T14:52:52.084Z,58.9
2022-12-19T14:54:19.325Z,58.8
2022-12-19T14:54:20.376Z,58.9
2022-12-19T14:56:11.696Z,58.7
2022-12-19T14:58:33.862Z,58.7
2022-12-19T14:59:38.365Z,58.6
2022-12-19T15:01:38.439Z,58.7
2022-12-19T15:03:38.429Z,58.8
2022-12-19T15:05:38.312Z,58.7
2022-12-19T15:07:38.351Z,58.7
2022-12-19T15:11:02.251Z,58.7
2022-12-19T15:11:53.518Z,58.7
2022-12-19T15:14:50.137Z,58.2
2022-12-19T15:15:38.409Z,58.4
2022-12-19T15:17:38.309Z,58.5
2022-12-19T15:19:38.290Z,58.4
2022-12-19T15:21:38.318Z,58.4
2022-12-19T15:23:38.325Z,58.5
2022-12-19T15:26:03.172Z,58.5
2022-12-19T15:27:39.499Z,58.4
2022-12-19T15:29:38.313Z,58.4
2022-12-19T15:31:38.615Z,58.5
2022-12-19T15:33:44.032Z,58.2
2022-12-19T15:35:38.312Z,58.6
2022-12-19T15:37:38.280Z,58.5
2022-12-19T15:39:38.349Z,58.4
2022-12-19T15:41:38.314Z,58.4
2022-12-19T15:44:02.882Z,58.3
2022-12-19T15:45:38.310Z,58.3
2022-12-19T15:47:38.253Z,58.2
2022-12-19T15:49:38.310Z,58.2
2022-12-19T15:51:38.330Z,58.2
2022-12-19T15:53:40.904Z,58.2
2022-12-19T15:55:39.689Z,58.2
2022-12-19T15:57:38.271Z,58.1
2022-12-19T15:59:38.633Z,58.1
2022-12-19T16:01:38.401Z,58.1
2022-12-19T16:03:38.384Z,58.1
2022-12-19T16:05:38.344Z,58.1
2022-12-19T16:07:38.238Z,58.1
2022-12-19T16:09:38.270Z,58.1
2022-12-19T16:11:38.234Z,58.1
2022-12-19T16:13:38.273Z,58.1
2022-12-19T16:15:38.219Z,58.2
2022-12-19T16:17:39.524Z,58.1
2022-12-19T16:19:38.251Z,57.4
2022-12-19T16:21:38.229Z,57.4
2022-12-19T16:23:38.213Z,57.6
2022-12-19T16:25:38.295Z,57.7
2022-12-19T16:27:38.252Z,57.5
2022-12-19T16:29:41.768Z,57.5
2022-12-19T16:31:38.297Z,57.4
2022-12-19T16:33:38.251Z,57.4
2022-12-19T16:36:03.423Z,57.5
2022-12-19T16:37:38.182Z,57.5
2022-12-19T16:39:38.187Z,57.5
2022-12-19T16:41:41.597Z,57.1
2022-12-19T16:43:38.222Z,57.3
2022-12-19T16:45:38.217Z,57.4
2022-12-19T16:47:38.193Z,57.4
2022-12-19T16:49:38.582Z,57.4
2022-12-19T16:51:38.215Z,57.3
2022-12-19T16:53:38.470Z,57.2
2022-12-19T16:55:38.153Z,57.3
2022-12-19T16:57:38.260Z,57.3
2022-12-19T16:59:39.585Z,56.8
2022-12-19T17:01:38.323Z,56.8
2022-12-19T17:03:38.269Z,57
2022-12-19T17:05:38.259Z,56.9
2022-12-19T17:07:38.145Z,56.7
2022-12-19T17:09:38.188Z,56.9
2022-12-19T17:11:38.157Z,57
2022-12-19T17:13:39.236Z,57
2022-12-19T17:15:38.193Z,56.1
2022-12-19T17:17:38.154Z,55.6
2022-12-19T17:19:38.221Z,55.8
2022-12-19T17:21:38.176Z,56.2
2022-12-19T17:23:38.241Z,55.4
2022-12-19T17:25:38.132Z,54.6
2022-12-19T17:27:38.219Z,55.4
2022-12-19T17:29:38.166Z,55.4
2022-12-19T17:31:38.451Z,55.4
2022-12-19T17:33:39.369Z,55.5
2022-12-19T17:35:38.152Z,55.1
2022-12-19T17:37:38.142Z,55.1
2022-12-19T17:39:38.201Z,54.7
2022-12-19T17:41:38.144Z,54.2
2022-12-19T17:43:38.173Z,55.1
2022-12-19T17:45:38.167Z,55.4
2022-12-19T17:47:38.064Z,55.4
2022-12-19T17:49:38.125Z,55.5
2022-12-19T17:51:38.140Z,55.4
2022-12-19T17:53:38.179Z,55.5
2022-12-19T17:55:38.191Z,55.3
2022-12-19T17:57:38.081Z,54.6
2022-12-19T17:59:38.096Z,54.2
2022-12-19T18:01:38.270Z,54.5
2022-12-19T18:03:38.125Z,54.8
2022-12-19T18:05:38.077Z,54.9
2022-12-19T18:07:38.080Z,54.9
2022-12-19T18:09:38.147Z,54.6
2022-12-19T18:11:41.781Z,54.5
2022-12-19T18:13:38.137Z,54.8
2022-12-19T18:15:38.081Z,54.3
2022-12-19T18:17:38.089Z,54.5
2022-12-19T18:19:38.083Z,54.6
2022-12-19T18:21:38.094Z,54.7
2022-12-19T18:23:38.107Z,54.9
2022-12-19T18:25:40.863Z,54.9
2022-12-19T18:27:38.050Z,54
2022-12-19T18:29:38.053Z,54.1
2022-12-19T18:31:38.035Z,54
2022-12-19T18:33:39.478Z,53.8
2022-12-19T18:35:38.068Z,54.2
2022-12-19T18:37:39.323Z,54.4
2022-12-19T18:39:38.007Z,54.5
2022-12-19T18:41:37.997Z,53.9
2022-12-19T18:43:38.026Z,53
2022-12-19T18:45:38.020Z,53.2
2022-12-19T18:47:37.965Z,52.7
2022-12-19T18:49:38.018Z,52.9
2022-12-19T18:51:38.049Z,52.7
2022-12-19T18:53:37.986Z,53.2
2022-12-19T18:55:44.116Z,53.3
2022-12-19T18:57:38.019Z,53.6
2022-12-19T18:59:38.094Z,53.7
2022-12-19T19:01:39.436Z,53.8
2022-12-19T19:03:38.094Z,53.7
2022-12-19T19:05:38.056Z,53.7
2022-12-19T19:07:37.993Z,53.8
2022-12-19T19:09:38.038Z,52.9
2022-12-19T19:11:38.047Z,52.9
2022-12-19T19:13:38.017Z,53
2022-12-19T19:15:38.035Z,53.2
2022-12-19T19:17:37.964Z,53.2
2022-12-19T19:19:38.032Z,53.3
2022-12-19T19:21:38.005Z,53.3
2022-12-19T19:23:37.999Z,52.9
2022-12-19T19:25:38.007Z,53
2022-12-19T19:27:37.976Z,52.8
2022-12-19T19:29:37.985Z,53
2022-12-19T19:31:38.112Z,53.1
2022-12-19T19:33:38.020Z,53.1
2022-12-19T19:35:38.019Z,53.2
2022-12-19T19:37:39.193Z,53.1
2022-12-19T19:39:37.979Z,52.9
2022-12-19T19:41:38.286Z,52.8
2022-12-19T19:43:37.965Z,53.1
2022-12-19T19:45:42.902Z,52.7
2022-12-19T19:47:37.942Z,52.2
2022-12-19T19:49:37.974Z,51.6
2022-12-19T19:51:37.945Z,51.1
2022-12-19T19:53:37.977Z,50.8
2022-12-19T19:55:37.939Z,49.7
2022-12-19T19:57:37.945Z,49.3
2022-12-19T19:59:37.919Z,49.1
2022-12-19T20:01:38.073Z,49
2022-12-19T20:03:40.754Z,49.4
2022-12-19T20:05:39.078Z,50.2
2022-12-19T20:07:37.934Z,50.2
2022-12-19T20:09:37.929Z,49.9
2022-12-19T20:11:48.436Z,50.3
2022-12-19T20:13:37.940Z,50.8
2022-12-19T20:15:43.037Z,50.5
2022-12-19T20:17:39.097Z,50.5
2022-12-19T20:19:37.893Z,50.5
2022-12-19T20:21:37.942Z,50.2
2022-12-19T20:23:37.971Z,49.2
2022-12-19T20:25:37.928Z,48.7
2022-12-19T20:27:37.906Z,48.3
2022-12-19T20:29:37.925Z,48.9
2022-12-19T20:31:37.942Z,49.4
2022-12-19T20:33:37.954Z,49.6
2022-12-19T20:35:37.936Z,49.9
2022-12-19T20:37:38.959Z,50.2
2022-12-19T20:39:37.881Z,49.9
2022-12-19T20:41:37.865Z,50.2
2022-12-19T20:43:37.882Z,50.3
2022-12-19T20:45:37.883Z,50.4
2022-12-19T20:47:40.432Z,48.2
2022-12-19T20:49:37.892Z,48.8
2022-12-19T20:51:37.857Z,49.2
2022-12-19T20:53:37.882Z,49.5
2022-12-19T20:55:37.860Z,49.5
2022-12-19T20:57:37.893Z,49.8
2022-12-19T20:59:37.872Z,49.9
2022-12-19T21:01:38.039Z,50
2022-12-19T21:03:38.231Z,50.2
2022-12-19T21:05:37.888Z,50.1
2022-12-19T21:07:37.904Z,50
2022-12-19T21:09:37.893Z,50.1
2022-12-19T21:11:37.873Z,50.1
2022-12-19T21:13:37.908Z,50.2
2022-12-19T21:15:37.909Z,50.2
2022-12-19T21:17:37.908Z,50.3
2022-12-19T21:19:37.864Z,50.2
2022-12-19T21:21:37.889Z,50.3
2022-12-19T21:23:37.843Z,49.8
2022-12-19T21:25:37.820Z,50
2022-12-19T21:27:37.836Z,50.2
2022-12-19T21:29:37.808Z,50
2022-12-19T21:31:37.861Z,50.2
2022-12-19T21:33:37.808Z,50.3
2022-12-19T21:35:37.828Z,49.7
2022-12-19T21:37:43.250Z,50
2022-12-19T21:39:37.795Z,49.5
2022-12-19T21:41:37.867Z,49.5
2022-12-19T21:43:37.799Z,49.5
2022-12-19T21:45:37.831Z,49.5
2022-12-19T21:47:37.797Z,49.2
2022-12-19T21:49:37.796Z,49.4
2022-12-19T21:51:39.265Z,49.6
2022-12-19T21:53:37.831Z,50
2022-12-19T21:55:37.829Z,50
2022-12-19T21:57:37.790Z,49.9
2022-12-19T21:59:37.783Z,49.5
2022-12-19T22:01:37.972Z,49.6
2022-12-19T22:03:37.979Z,49.9
2022-12-19T22:05:37.774Z,50.1
2022-12-19T22:07:37.781Z,50.3
2022-12-19T22:09:37.820Z,50.1
2022-12-19T22:11:37.752Z,50.2
2022-12-19T22:13:37.806Z,50.3
2022-12-19T22:15:37.747Z,50.4
2022-12-19T22:17:37.743Z,50.3
2022-12-19T22:19:37.757Z,50
2022-12-19T22:21:37.766Z,50.2
2022-12-19T22:23:37.731Z,50.4
2022-12-19T22:25:37.831Z,50.4
2022-12-19T22:27:37.787Z,50.4
2022-12-19T22:29:37.795Z,50.4
2022-12-19T22:31:37.789Z,50.5
2022-12-19T22:33:37.714Z,50.1
2022-12-19T22:35:37.715Z,50.3
2022-12-19T22:37:37.795Z,50.5
2022-12-19T22:39:43.390Z,50.6
2022-12-19T22:41:37.717Z,50.7
2022-12-19T22:43:37.727Z,50.8
2022-12-19T22:45:37.776Z,50.9
2022-12-19T22:47:37.750Z,50.9
2022-12-19T22:49:37.702Z,50.9
2022-12-19T22:51:37.714Z,51.1
2022-12-19T22:53:37.719Z,51.2
2022-12-19T22:55:37.703Z,51.3
2022-12-19T22:57:37.766Z,51.5
2022-12-19T22:59:37.754Z,51.5
2022-12-19T23:01:37.824Z,51.7
2022-12-19T23:03:37.781Z,51.8
2022-12-19T23:05:39.084Z,51.9
2022-12-19T23:07:37.673Z,51.9
2022-12-19T23:09:37.690Z,51.9
2022-12-19T23:11:37.695Z,51.9
2022-12-19T23:13:37.670Z,51.9
2022-12-19T23:15:37.728Z,52
2022-12-19T23:17:37.744Z,52
2022-12-19T23:19:37.683Z,51.9
2022-12-19T23:21:37.703Z,52
2022-12-19T23:23:37.663Z,52
2022-12-19T23:25:37.699Z,52.1
2022-12-19T23:27:37.645Z,52.1
2022-12-19T23:29:37.746Z,52.1
2022-12-19T23:31:37.765Z,52.1
2022-12-19T23:33:37.652Z,52.2
2022-12-19T23:35:37.699Z,52.3
2022-12-19T23:37:37.634Z,52.4
2022-12-19T23:39:37.672Z,52.5
2022-12-19T23:41:37.645Z,52.6
2022-12-19T23:43:37.652Z,52.8
2022-12-19T23:45:37.715Z,52.9
2022-12-19T23:47:37.656Z,53.1
2022-12-19T23:49:37.656Z,53.1
2022-12-19T23:51:37.656Z,53.2
2022-12-19T23:53:37.675Z,53.3
2022-12-19T23:55:37.624Z,53.3
2022-12-19T23:57:37.651Z,53.4
2022-12-19T23:59:37.630Z,53.4
